sensor_id;sensor_type;location;lat;lon;timestamp;temperature;humidity
13589;DHT22;6865;52.552;13.434;2022-09-09T00:00:53;15.20;99.90
13589;DHT22;6865;52.552;13.434;2022-09-09T00:03:29;15.20;99.90
13589;DHT22;6865;52.552;13.434;2022-09-09T00:09:11;15.10;99.90
13589;DHT22;6865;52.552;13.434;2022-09-09T00:11:45;15.10;99.90
13589;DHT22;6865;52.552;13.434;2022-09-09T00:14:31;15.10;99.90
13589;DHT22;6865;52.552;13.434;2022-09-09T00:17:04;15.10;99.90
13589;DHT22;6865;52.552;13.434;2022-09-09T00:22:30;15.10;99.90
13589;DHT22;6865;52.552;13.434;2022-09-09T00:26:02;15.10;99.90
13589;DHT22;6865;52.552;13.434;2022-09-09T00:28:13;15.00;99.90
13589;DHT22;6865;52.552;13.434;2022-09-09T00:30:43;15.00;99.90
13589;DHT22;6865;52.552;13.434;2022-09-09T00:33:17;15.00;99.90
13589;DHT22;6865;52.552;13.434;2022-09-09T00:35:49;15.00;99.90
13589;DHT22;6865;52.552;13.434;2022-09-09T00:38:37;15.00;99.90
13589;DHT22;6865;52.552;13.434;2022-09-09T00:41:49;14.90;99.90
13589;DHT22;6865;52.552;13.434;2022-09-09T00:44:33;14.90;99.90
13589;DHT22;6865;52.552;13.434;2022-09-09T00:49:56;15.30;99.90
13589;DHT22;6865;52.552;13.434;2022-09-09T00:52:47;14.90;99.90
13589;DHT22;6865;52.552;13.434;2022-09-09T00:55:25;16.90;99.90
13589;DHT22;6865;52.552;13.434;2022-09-09T00:57:55;14.90;99.90
13589;DHT22;6865;52.552;13.434;2022-09-09T01:00:31;14.90;99.90
13589;DHT22;6865;52.552;13.434;2022-09-09T01:03:02;14.90;99.90
13589;DHT22;6865;52.552;13.434;2022-09-09T01:05:45;14.90;99.90
13589;DHT22;6865;52.552;13.434;2022-09-09T01:10:53;14.90;99.90
13589;DHT22;6865;52.552;13.434;2022-09-09T01:13:29;14.90;99.90
13589;DHT22;6865;52.552;13.434;2022-09-09T01:16:01;14.90;99.90
13589;DHT22;6865;52.552;13.434;2022-09-09T01:18:39;14.90;99.90
13589;DHT22;6865;52.552;13.434;2022-09-09T01:21:27;14.80;99.90
13589;DHT22;6865;52.552;13.434;2022-09-09T01:24:27;14.80;99.90
13589;DHT22;6865;52.552;13.434;2022-09-09T01:27:00;14.80;99.90
13589;DHT22;6865;52.552;13.434;2022-09-09T01:29:28;14.90;99.90
13589;DHT22;6865;52.552;13.434;2022-09-09T01:32:01;14.80;99.90
13589;DHT22;6865;52.552;13.434;2022-09-09T01:34:38;14.80;99.90
13589;DHT22;6865;52.552;13.434;2022-09-09T01:37:08;14.80;99.90
13589;DHT22;6865;52.552;13.434;2022-09-09T01:39:38;14.70;99.90
13589;DHT22;6865;52.552;13.434;2022-09-09T01:42:09;14.80;99.90
13589;DHT22;6865;52.552;13.434;2022-09-09T01:44:36;14.70;99.90
13589;DHT22;6865;52.552;13.434;2022-09-09T01:47:04;14.70;99.90
13589;DHT22;6865;52.552;13.434;2022-09-09T01:49:31;14.70;99.90
13589;DHT22;6865;52.552;13.434;2022-09-09T01:51:59;14.70;99.90
13589;DHT22;6865;52.552;13.434;2022-09-09T01:54:28;14.60;99.90
13589;DHT22;6865;52.552;13.434;2022-09-09T01:57:23;14.50;99.90
13589;DHT22;6865;52.552;13.434;2022-09-09T02:00:07;14.50;99.90
13589;DHT22;6865;52.552;13.434;2022-09-09T02:08:10;14.60;99.90
13589;DHT22;6865;52.552;13.434;2022-09-09T02:10:45;14.60;99.90
13589;DHT22;6865;52.552;13.434;2022-09-09T02:13:14;14.60;99.90
13589;DHT22;6865;52.552;13.434;2022-09-09T02:15:58;14.60;99.90
13589;DHT22;6865;52.552;13.434;2022-09-09T02:18:32;14.60;99.90
13589;DHT22;6865;52.552;13.434;2022-09-09T02:21:02;14.60;99.90
13589;DHT22;6865;52.552;13.434;2022-09-09T02:23:29;14.60;99.90
13589;DHT22;6865;52.552;13.434;2022-09-09T02:25:58;14.60;99.90
13589;DHT22;6865;52.552;13.434;2022-09-09T02:28:27;14.50;99.90
13589;DHT22;6865;52.552;13.434;2022-09-09T02:30:54;14.60;99.90
13589;DHT22;6865;52.552;13.434;2022-09-09T02:33:28;14.60;99.90
13589;DHT22;6865;52.552;13.434;2022-09-09T02:35:58;14.50;99.90
13589;DHT22;6865;52.552;13.434;2022-09-09T02:38:34;14.50;99.90
13589;DHT22;6865;52.552;13.434;2022-09-09T02:41:02;14.50;99.90
13589;DHT22;6865;52.552;13.434;2022-09-09T02:43:33;14.50;99.90
13589;DHT22;6865;52.552;13.434;2022-09-09T02:51:30;14.50;99.90
13589;DHT22;6865;52.552;13.434;2022-09-09T02:56:47;14.50;99.90
13589;DHT22;6865;52.552;13.434;2022-09-09T02:59:16;14.50;99.90
13589;DHT22;6865;52.552;13.434;2022-09-09T03:01:44;14.50;99.90
13589;DHT22;6865;52.552;13.434;2022-09-09T03:04:11;14.50;99.90
13589;DHT22;6865;52.552;13.434;2022-09-09T03:06:37;14.40;99.90
13589;DHT22;6865;52.552;13.434;2022-09-09T03:09:04;14.30;99.90
13589;DHT22;6865;52.552;13.434;2022-09-09T03:11:31;14.30;99.90
13589;DHT22;6865;52.552;13.434;2022-09-09T03:13:58;14.20;99.90
13589;DHT22;6865;52.552;13.434;2022-09-09T03:16:25;14.40;99.90
13589;DHT22;6865;52.552;13.434;2022-09-09T03:18:51;14.20;99.90
13589;DHT22;6865;52.552;13.434;2022-09-09T03:21:18;14.20;99.90
13589;DHT22;6865;52.552;13.434;2022-09-09T03:23:45;14.10;99.90
13589;DHT22;6865;52.552;13.434;2022-09-09T03:26:12;14.20;99.90
13589;DHT22;6865;52.552;13.434;2022-09-09T03:28:42;14.10;99.90
13589;DHT22;6865;52.552;13.434;2022-09-09T03:31:09;14.10;99.90
13589;DHT22;6865;52.552;13.434;2022-09-09T03:33:37;14.10;99.90
13589;DHT22;6865;52.552;13.434;2022-09-09T03:36:05;14.10;99.90
13589;DHT22;6865;52.552;13.434;2022-09-09T03:38:31;14.10;99.90
13589;DHT22;6865;52.552;13.434;2022-09-09T03:40:59;14.10;99.90
13589;DHT22;6865;52.552;13.434;2022-09-09T03:43:27;14.10;99.90
13589;DHT22;6865;52.552;13.434;2022-09-09T03:45:54;14.10;99.90
13589;DHT22;6865;52.552;13.434;2022-09-09T03:48:25;14.10;99.90
13589;DHT22;6865;52.552;13.434;2022-09-09T03:50:54;14.10;99.90
13589;DHT22;6865;52.552;13.434;2022-09-09T03:53:23;14.10;99.90
13589;DHT22;6865;52.552;13.434;2022-09-09T03:55:53;14.10;99.90
13589;DHT22;6865;52.552;13.434;2022-09-09T03:58:24;14.10;99.90
13589;DHT22;6865;52.552;13.434;2022-09-09T04:00:57;14.10;99.90
13589;DHT22;6865;52.552;13.434;2022-09-09T04:03:24;14.10;99.90
13589;DHT22;6865;52.552;13.434;2022-09-09T04:05:55;14.10;99.90
13589;DHT22;6865;52.552;13.434;2022-09-09T04:08:22;14.10;99.90
13589;DHT22;6865;52.552;13.434;2022-09-09T04:10:52;14.00;99.90
13589;DHT22;6865;52.552;13.434;2022-09-09T04:13:19;14.00;99.90
13589;DHT22;6865;52.552;13.434;2022-09-09T04:15:59;14.00;99.90
13589;DHT22;6865;52.552;13.434;2022-09-09T04:18:26;13.90;99.90
13589;DHT22;6865;52.552;13.434;2022-09-09T04:20:54;13.90;99.90
13589;DHT22;6865;52.552;13.434;2022-09-09T04:23:24;13.80;99.90
13589;DHT22;6865;52.552;13.434;2022-09-09T04:25:53;13.80;99.90
13589;DHT22;6865;52.552;13.434;2022-09-09T04:28:22;13.70;99.90
13589;DHT22;6865;52.552;13.434;2022-09-09T04:30:50;13.80;99.90
13589;DHT22;6865;52.552;13.434;2022-09-09T04:33:18;13.80;99.90
13589;DHT22;6865;52.552;13.434;2022-09-09T04:35:49;13.90;99.90
13589;DHT22;6865;52.552;13.434;2022-09-09T04:38:17;13.90;99.90
13589;DHT22;6865;52.552;13.434;2022-09-09T04:40:46;13.90;99.90
13589;DHT22;6865;52.552;13.434;2022-09-09T04:43:13;13.90;99.90
13589;DHT22;6865;52.552;13.434;2022-09-09T04:46:05;13.90;99.90
13589;DHT22;6865;52.552;13.434;2022-09-09T04:48:32;13.90;99.90
13589;DHT22;6865;52.552;13.434;2022-09-09T04:51:02;13.80;99.90
13589;DHT22;6865;52.552;13.434;2022-09-09T04:53:28;13.80;99.90
13589;DHT22;6865;52.552;13.434;2022-09-09T04:58:32;13.90;99.90
13589;DHT22;6865;52.552;13.434;2022-09-09T05:01:07;13.90;99.90
13589;DHT22;6865;52.552;13.434;2022-09-09T05:03:34;13.80;99.90
13589;DHT22;6865;52.552;13.434;2022-09-09T05:06:09;13.80;99.90
13589;DHT22;6865;52.552;13.434;2022-09-09T05:08:37;13.90;99.90
13589;DHT22;6865;52.552;13.434;2022-09-09T05:11:31;14.00;99.90
13589;DHT22;6865;52.552;13.434;2022-09-09T05:13:58;14.00;99.90
13589;DHT22;6865;52.552;13.434;2022-09-09T05:16:25;14.10;99.90
13589;DHT22;6865;52.552;13.434;2022-09-09T05:18:53;14.10;99.90
13589;DHT22;6865;52.552;13.434;2022-09-09T05:21:21;14.20;99.90
13589;DHT22;6865;52.552;13.434;2022-09-09T05:23:49;14.30;99.90
13589;DHT22;6865;52.552;13.434;2022-09-09T05:26:19;14.30;99.90
13589;DHT22;6865;52.552;13.434;2022-09-09T05:28:46;14.40;99.90
13589;DHT22;6865;52.552;13.434;2022-09-09T05:31:14;14.50;99.90
13589;DHT22;6865;52.552;13.434;2022-09-09T05:33:43;14.50;99.90
13589;DHT22;6865;52.552;13.434;2022-09-09T05:36:12;14.50;99.90
13589;DHT22;6865;52.552;13.434;2022-09-09T05:38:43;14.60;99.90
13589;DHT22;6865;52.552;13.434;2022-09-09T05:41:11;14.70;99.90
13589;DHT22;6865;52.552;13.434;2022-09-09T05:43:38;14.70;99.90
13589;DHT22;6865;52.552;13.434;2022-09-09T05:46:10;14.80;99.90
13589;DHT22;6865;52.552;13.434;2022-09-09T05:48:39;14.80;99.90
13589;DHT22;6865;52.552;13.434;2022-09-09T05:51:08;14.80;99.90
13589;DHT22;6865;52.552;13.434;2022-09-09T05:53:35;14.80;99.90
13589;DHT22;6865;52.552;13.434;2022-09-09T05:56:08;14.90;99.90
13589;DHT22;6865;52.552;13.434;2022-09-09T05:58:37;14.90;99.90
13589;DHT22;6865;52.552;13.434;2022-09-09T06:01:08;14.90;99.90
13589;DHT22;6865;52.552;13.434;2022-09-09T06:03:37;14.90;99.90
13589;DHT22;6865;52.552;13.434;2022-09-09T06:06:07;15.00;99.90
13589;DHT22;6865;52.552;13.434;2022-09-09T06:08:35;15.00;99.90
13589;DHT22;6865;52.552;13.434;2022-09-09T06:11:11;15.10;99.90
13589;DHT22;6865;52.552;13.434;2022-09-09T06:13:39;15.10;99.90
13589;DHT22;6865;52.552;13.434;2022-09-09T06:16:09;15.10;99.90
13589;DHT22;6865;52.552;13.434;2022-09-09T06:18:38;15.10;99.90
13589;DHT22;6865;52.552;13.434;2022-09-09T06:21:08;15.20;99.90
13589;DHT22;6865;52.552;13.434;2022-09-09T06:23:35;15.50;99.90
13589;DHT22;6865;52.552;13.434;2022-09-09T06:26:08;15.40;99.90
13589;DHT22;6865;52.552;13.434;2022-09-09T06:28:36;15.50;99.90
13589;DHT22;6865;52.552;13.434;2022-09-09T06:31:05;15.60;99.90
13589;DHT22;6865;52.552;13.434;2022-09-09T06:33:34;15.60;99.90
13589;DHT22;6865;52.552;13.434;2022-09-09T06:36:03;15.70;99.90
13589;DHT22;6865;52.552;13.434;2022-09-09T06:38:30;15.70;99.90
13589;DHT22;6865;52.552;13.434;2022-09-09T06:40:58;15.40;99.90
13589;DHT22;6865;52.552;13.434;2022-09-09T06:43:26;15.90;99.90
13589;DHT22;6865;52.552;13.434;2022-09-09T06:46:01;16.00;99.90
13589;DHT22;6865;52.552;13.434;2022-09-09T06:48:28;16.10;99.90
13589;DHT22;6865;52.552;13.434;2022-09-09T06:51:07;16.10;99.90
13589;DHT22;6865;52.552;13.434;2022-09-09T06:53:35;16.10;99.90
13589;DHT22;6865;52.552;13.434;2022-09-09T06:56:21;16.20;99.90
13589;DHT22;6865;52.552;13.434;2022-09-09T06:58:52;16.20;99.90
13589;DHT22;6865;52.552;13.434;2022-09-09T07:01:24;16.20;99.90
13589;DHT22;6865;52.552;13.434;2022-09-09T07:03:52;16.30;99.90
13589;DHT22;6865;52.552;13.434;2022-09-09T07:06:42;16.40;99.90
13589;DHT22;6865;52.552;13.434;2022-09-09T07:09:11;16.50;99.90
13589;DHT22;6865;52.552;13.434;2022-09-09T07:11:40;16.60;99.90
13589;DHT22;6865;52.552;13.434;2022-09-09T07:14:08;16.90;99.90
13589;DHT22;6865;52.552;13.434;2022-09-09T07:16:35;17.10;99.90
13589;DHT22;6865;52.552;13.434;2022-09-09T07:19:04;17.30;99.90
13589;DHT22;6865;52.552;13.434;2022-09-09T07:21:31;17.70;99.90
13589;DHT22;6865;52.552;13.434;2022-09-09T07:23:59;17.80;99.90
13589;DHT22;6865;52.552;13.434;2022-09-09T07:26:28;18.10;99.90
13589;DHT22;6865;52.552;13.434;2022-09-09T07:28:55;18.20;99.90
13589;DHT22;6865;52.552;13.434;2022-09-09T07:31:30;18.30;99.90
13589;DHT22;6865;52.552;13.434;2022-09-09T07:33:57;18.30;99.90
13589;DHT22;6865;52.552;13.434;2022-09-09T07:36:30;18.10;99.90
13589;DHT22;6865;52.552;13.434;2022-09-09T07:39:05;18.30;99.90
13589;DHT22;6865;52.552;13.434;2022-09-09T07:41:39;18.10;99.90
13589;DHT22;6865;52.552;13.434;2022-09-09T07:44:18;18.20;99.90
13589;DHT22;6865;52.552;13.434;2022-09-09T07:46:47;18.30;99.90
13589;DHT22;6865;52.552;13.434;2022-09-09T07:49:15;18.30;99.90
13589;DHT22;6865;52.552;13.434;2022-09-09T07:51:44;18.40;99.90
13589;DHT22;6865;52.552;13.434;2022-09-09T07:54:13;18.40;99.90
13589;DHT22;6865;52.552;13.434;2022-09-09T07:56:41;18.50;99.90
13589;DHT22;6865;52.552;13.434;2022-09-09T07:59:08;18.40;99.90
13589;DHT22;6865;52.552;13.434;2022-09-09T08:01:41;18.50;99.90
13589;DHT22;6865;52.552;13.434;2022-09-09T08:04:14;18.80;99.90
13589;DHT22;6865;52.552;13.434;2022-09-09T08:06:47;19.10;99.90
13589;DHT22;6865;52.552;13.434;2022-09-09T08:09:15;19.20;99.90
13589;DHT22;6865;52.552;13.434;2022-09-09T08:11:42;19.40;99.90
13589;DHT22;6865;52.552;13.434;2022-09-09T08:14:10;19.50;99.90
13589;DHT22;6865;52.552;13.434;2022-09-09T08:16:40;19.40;99.90
13589;DHT22;6865;52.552;13.434;2022-09-09T08:19:08;19.70;99.90
13589;DHT22;6865;52.552;13.434;2022-09-09T08:21:37;19.60;99.90
13589;DHT22;6865;52.552;13.434;2022-09-09T08:24:06;19.60;99.90
13589;DHT22;6865;52.552;13.434;2022-09-09T08:26:44;19.50;99.90
13589;DHT22;6865;52.552;13.434;2022-09-09T08:29:12;19.50;99.90
13589;DHT22;6865;52.552;13.434;2022-09-09T08:31:43;19.50;99.90
13589;DHT22;6865;52.552;13.434;2022-09-09T08:34:10;19.40;99.90
13589;DHT22;6865;52.552;13.434;2022-09-09T08:36:42;19.20;99.90
13589;DHT22;6865;52.552;13.434;2022-09-09T08:39:11;19.30;99.90
13589;DHT22;6865;52.552;13.434;2022-09-09T08:50:30;19.40;99.90
13589;DHT22;6865;52.552;13.434;2022-09-09T08:53:05;19.50;99.90
13589;DHT22;6865;52.552;13.434;2022-09-09T08:55:46;19.40;99.90
13589;DHT22;6865;52.552;13.434;2022-09-09T08:58:23;19.40;99.90
13589;DHT22;6865;52.552;13.434;2022-09-09T09:04:19;19.40;99.90
13589;DHT22;6865;52.552;13.434;2022-09-09T09:10:02;19.50;99.90
13589;DHT22;6865;52.552;13.434;2022-09-09T09:12:50;19.60;99.90
13589;DHT22;6865;52.552;13.434;2022-09-09T09:15:21;19.60;99.90
13589;DHT22;6865;52.552;13.434;2022-09-09T09:17:50;19.80;99.90
13589;DHT22;6865;52.552;13.434;2022-09-09T09:20:21;19.90;99.90
13589;DHT22;6865;52.552;13.434;2022-09-09T09:22:52;20.10;99.90
13589;DHT22;6865;52.552;13.434;2022-09-09T09:25:23;20.20;99.90
13589;DHT22;6865;52.552;13.434;2022-09-09T09:28:09;20.30;99.90
13589;DHT22;6865;52.552;13.434;2022-09-09T09:30:44;20.50;99.90
13589;DHT22;6865;52.552;13.434;2022-09-09T09:36:15;20.80;99.90
13589;DHT22;6865;52.552;13.434;2022-09-09T09:38:56;21.00;99.90
13589;DHT22;6865;52.552;13.434;2022-09-09T09:41:43;21.10;99.90
13589;DHT22;6865;52.552;13.434;2022-09-09T09:44:30;21.30;99.90
13589;DHT22;6865;52.552;13.434;2022-09-09T09:47:08;21.30;99.90
13589;DHT22;6865;52.552;13.434;2022-09-09T09:49:35;21.20;99.90
13589;DHT22;6865;52.552;13.434;2022-09-09T09:52:03;21.10;99.90
13589;DHT22;6865;52.552;13.434;2022-09-09T09:54:33;21.00;99.90
13589;DHT22;6865;52.552;13.434;2022-09-09T09:57:11;20.90;99.90
13589;DHT22;6865;52.552;13.434;2022-09-09T09:59:39;20.80;99.90
13589;DHT22;6865;52.552;13.434;2022-09-09T10:02:21;20.80;99.90
13589;DHT22;6865;52.552;13.434;2022-09-09T10:05:08;20.80;99.90
13589;DHT22;6865;52.552;13.434;2022-09-09T10:07:38;20.90;99.90
13589;DHT22;6865;52.552;13.434;2022-09-09T10:10:08;21.00;99.90
13589;DHT22;6865;52.552;13.434;2022-09-09T10:15:46;21.00;99.90
13589;DHT22;6865;52.552;13.434;2022-09-09T10:18:46;21.10;99.90
13589;DHT22;6865;52.552;13.434;2022-09-09T10:24:58;21.30;99.90
13589;DHT22;6865;52.552;13.434;2022-09-09T10:27:52;21.30;99.90
13589;DHT22;6865;52.552;13.434;2022-09-09T10:30:50;21.40;99.90
13589;DHT22;6865;52.552;13.434;2022-09-09T10:33:32;21.50;99.90
13589;DHT22;6865;52.552;13.434;2022-09-09T10:36:13;21.40;99.90
13589;DHT22;6865;52.552;13.434;2022-09-09T10:38:42;21.60;99.90
13589;DHT22;6865;52.552;13.434;2022-09-09T10:44:12;21.50;99.90
13589;DHT22;6865;52.552;13.434;2022-09-09T10:47:18;21.60;99.90
13589;DHT22;6865;52.552;13.434;2022-09-09T10:50:01;21.60;99.90
13589;DHT22;6865;52.552;13.434;2022-09-09T10:55:47;22.00;99.90
13589;DHT22;6865;52.552;13.434;2022-09-09T10:58:19;22.00;99.90
13589;DHT22;6865;52.552;13.434;2022-09-09T11:00:51;21.90;99.90
13589;DHT22;6865;52.552;13.434;2022-09-09T11:03:28;21.90;99.90
13589;DHT22;6865;52.552;13.434;2022-09-09T11:06:11;21.80;99.90
13589;DHT22;6865;52.552;13.434;2022-09-09T11:08:39;21.90;99.90
13589;DHT22;6865;52.552;13.434;2022-09-09T11:11:30;21.90;99.90
13589;DHT22;6865;52.552;13.434;2022-09-09T11:14:12;22.10;99.90
13589;DHT22;6865;52.552;13.434;2022-09-09T11:16:58;22.20;99.90
13589;DHT22;6865;52.552;13.434;2022-09-09T11:19:39;22.30;99.90
13589;DHT22;6865;52.552;13.434;2022-09-09T11:22:37;22.30;99.90
13589;DHT22;6865;52.552;13.434;2022-09-09T11:30:22;22.30;99.90
13589;DHT22;6865;52.552;13.434;2022-09-09T11:33:38;22.40;99.90
13589;DHT22;6865;52.552;13.434;2022-09-09T11:42:18;23.00;99.90
13589;DHT22;6865;52.552;13.434;2022-09-09T11:44:45;23.00;99.90
13589;DHT22;6865;52.552;13.434;2022-09-09T11:47:24;23.00;99.90
13589;DHT22;6865;52.552;13.434;2022-09-09T11:52:47;23.00;99.90
13589;DHT22;6865;52.552;13.434;2022-09-09T11:55:29;23.00;99.90
13589;DHT22;6865;52.552;13.434;2022-09-09T11:58:04;23.70;99.90
13589;DHT22;6865;52.552;13.434;2022-09-09T12:00:42;22.90;99.90
13589;DHT22;6865;52.552;13.434;2022-09-09T12:03:39;23.00;99.90
13589;DHT22;6865;52.552;13.434;2022-09-09T12:06:14;23.00;99.90
13589;DHT22;6865;52.552;13.434;2022-09-09T12:08:46;22.90;99.60
13589;DHT22;6865;52.552;13.434;2022-09-09T12:11:27;23.00;99.40
13589;DHT22;6865;52.552;13.434;2022-09-09T12:13:56;23.10;98.90
13589;DHT22;6865;52.552;13.434;2022-09-09T12:16:36;23.20;98.00
13589;DHT22;6865;52.552;13.434;2022-09-09T12:19:13;23.30;98.50
13589;DHT22;6865;52.552;13.434;2022-09-09T12:21:54;23.30;97.70
13589;DHT22;6865;52.552;13.434;2022-09-09T12:24:35;23.40;97.80
13589;DHT22;6865;52.552;13.434;2022-09-09T12:27:18;23.40;97.10
13589;DHT22;6865;52.552;13.434;2022-09-09T12:29:58;23.50;96.90
13589;DHT22;6865;52.552;13.434;2022-09-09T12:32:28;23.50;96.60
13589;DHT22;6865;52.552;13.434;2022-09-09T12:35:19;23.50;95.80
13589;DHT22;6865;52.552;13.434;2022-09-09T12:37:49;23.50;96.00
13589;DHT22;6865;52.552;13.434;2022-09-09T12:40:25;23.40;95.90
13589;DHT22;6865;52.552;13.434;2022-09-09T12:42:52;23.40;94.90
13589;DHT22;6865;52.552;13.434;2022-09-09T12:45:23;23.30;95.10
13589;DHT22;6865;52.552;13.434;2022-09-09T12:47:58;23.10;95.50
13589;DHT22;6865;52.552;13.434;2022-09-09T12:50:36;23.10;95.70
13589;DHT22;6865;52.552;13.434;2022-09-09T12:55:51;22.90;96.40
13589;DHT22;6865;52.552;13.434;2022-09-09T12:58:19;23.00;95.60
13589;DHT22;6865;52.552;13.434;2022-09-09T13:00:51;23.00;94.60
13589;DHT22;6865;52.552;13.434;2022-09-09T13:03:20;22.80;95.20
13589;DHT22;6865;52.552;13.434;2022-09-09T13:05:47;22.90;95.50
13589;DHT22;6865;52.552;13.434;2022-09-09T13:08:16;23.00;95.50
13589;DHT22;6865;52.552;13.434;2022-09-09T13:10:56;22.90;96.00
13589;DHT22;6865;52.552;13.434;2022-09-09T13:13:39;22.90;95.90
13589;DHT22;6865;52.552;13.434;2022-09-09T13:16:20;22.90;95.90
13589;DHT22;6865;52.552;13.434;2022-09-09T13:18:48;22.70;95.70
13589;DHT22;6865;52.552;13.434;2022-09-09T13:21:15;22.80;95.90
13589;DHT22;6865;52.552;13.434;2022-09-09T13:23:48;22.70;95.90
13589;DHT22;6865;52.552;13.434;2022-09-09T13:26:26;22.60;95.90
13589;DHT22;6865;52.552;13.434;2022-09-09T13:28:54;22.80;96.00
13589;DHT22;6865;52.552;13.434;2022-09-09T13:31:28;22.90;95.60
13589;DHT22;6865;52.552;13.434;2022-09-09T13:33:55;22.90;95.20
13589;DHT22;6865;52.552;13.434;2022-09-09T13:36:33;23.00;95.40
13589;DHT22;6865;52.552;13.434;2022-09-09T13:39:03;22.90;95.10
13589;DHT22;6865;52.552;13.434;2022-09-09T13:41:35;22.90;95.20
13589;DHT22;6865;52.552;13.434;2022-09-09T13:44:03;23.00;94.60
13589;DHT22;6865;52.552;13.434;2022-09-09T13:46:38;22.90;94.60
13589;DHT22;6865;52.552;13.434;2022-09-09T13:51:40;22.80;94.90
13589;DHT22;6865;52.552;13.434;2022-09-09T13:54:10;22.90;94.80
13589;DHT22;6865;52.552;13.434;2022-09-09T13:56:38;23.00;95.20
13589;DHT22;6865;52.552;13.434;2022-09-09T13:59:10;23.20;94.20
13589;DHT22;6865;52.552;13.434;2022-09-09T14:01:37;23.30;93.90
13589;DHT22;6865;52.552;13.434;2022-09-09T14:04:04;23.40;93.70
13589;DHT22;6865;52.552;13.434;2022-09-09T14:06:34;23.40;93.10
13589;DHT22;6865;52.552;13.434;2022-09-09T14:09:14;23.40;93.30
13589;DHT22;6865;52.552;13.434;2022-09-09T14:11:42;23.40;93.20
13589;DHT22;6865;52.552;13.434;2022-09-09T14:14:09;23.20;93.60
13589;DHT22;6865;52.552;13.434;2022-09-09T14:16:35;23.20;93.50
13589;DHT22;6865;52.552;13.434;2022-09-09T14:19:04;23.10;93.30
13589;DHT22;6865;52.552;13.434;2022-09-09T14:21:31;23.10;93.30
13589;DHT22;6865;52.552;13.434;2022-09-09T14:23:57;22.90;93.30
13589;DHT22;6865;52.552;13.434;2022-09-09T14:26:24;22.90;93.60
13589;DHT22;6865;52.552;13.434;2022-09-09T14:28:52;23.00;93.70
13589;DHT22;6865;52.552;13.434;2022-09-09T14:31:22;23.20;93.40
13589;DHT22;6865;52.552;13.434;2022-09-09T14:33:49;23.20;93.50
13589;DHT22;6865;52.552;13.434;2022-09-09T14:36:17;23.10;93.80
13589;DHT22;6865;52.552;13.434;2022-09-09T14:38:43;23.10;93.70
13589;DHT22;6865;52.552;13.434;2022-09-09T14:41:12;23.00;93.60
13589;DHT22;6865;52.552;13.434;2022-09-09T14:43:39;23.00;93.80
13589;DHT22;6865;52.552;13.434;2022-09-09T14:46:08;23.00;94.20
13589;DHT22;6865;52.552;13.434;2022-09-09T14:48:35;22.90;94.50
13589;DHT22;6865;52.552;13.434;2022-09-09T14:51:10;22.80;94.80
13589;DHT22;6865;52.552;13.434;2022-09-09T14:53:37;22.80;93.70
13589;DHT22;6865;52.552;13.434;2022-09-09T14:56:13;22.70;93.70
13589;DHT22;6865;52.552;13.434;2022-09-09T14:58:40;22.60;93.90
13589;DHT22;6865;52.552;13.434;2022-09-09T15:01:09;22.70;93.90
13589;DHT22;6865;52.552;13.434;2022-09-09T15:03:39;22.60;94.20
13589;DHT22;6865;52.552;13.434;2022-09-09T15:06:07;22.60;93.70
13589;DHT22;6865;52.552;13.434;2022-09-09T15:08:40;22.50;94.00
13589;DHT22;6865;52.552;13.434;2022-09-09T15:11:09;22.40;94.30
13589;DHT22;6865;52.552;13.434;2022-09-09T15:13:37;22.40;94.60
13589;DHT22;6865;52.552;13.434;2022-09-09T15:16:09;22.40;94.90
13589;DHT22;6865;52.552;13.434;2022-09-09T15:18:36;22.40;94.30
13589;DHT22;6865;52.552;13.434;2022-09-09T15:21:14;22.40;94.60
13589;DHT22;6865;52.552;13.434;2022-09-09T15:23:42;22.30;94.90
13589;DHT22;6865;52.552;13.434;2022-09-09T15:26:09;22.20;94.90
13589;DHT22;6865;52.552;13.434;2022-09-09T15:28:37;22.50;94.10
13589;DHT22;6865;52.552;13.434;2022-09-09T15:31:07;22.70;93.20
13589;DHT22;6865;52.552;13.434;2022-09-09T15:33:34;22.80;92.90
13589;DHT22;6865;52.552;13.434;2022-09-09T15:36:14;22.90;92.90
13589;DHT22;6865;52.552;13.434;2022-09-09T15:38:41;22.90;92.90
13589;DHT22;6865;52.552;13.434;2022-09-09T15:41:08;22.90;92.80
13589;DHT22;6865;52.552;13.434;2022-09-09T15:43:34;22.90;92.30
13589;DHT22;6865;52.552;13.434;2022-09-09T15:48:44;22.60;92.50
13589;DHT22;6865;52.552;13.434;2022-09-09T15:51:14;22.40;93.00
13589;DHT22;6865;52.552;13.434;2022-09-09T15:54:01;22.30;93.30
13589;DHT22;6865;52.552;13.434;2022-09-09T15:56:29;22.10;93.30
13589;DHT22;6865;52.552;13.434;2022-09-09T15:59:02;22.00;93.60
13589;DHT22;6865;52.552;13.434;2022-09-09T16:01:32;21.90;93.70
13589;DHT22;6865;52.552;13.434;2022-09-09T16:03:59;21.70;93.90
13589;DHT22;6865;52.552;13.434;2022-09-09T16:06:27;21.60;94.40
13589;DHT22;6865;52.552;13.434;2022-09-09T16:08:56;21.50;94.30
13589;DHT22;6865;52.552;13.434;2022-09-09T16:11:32;21.40;94.40
13589;DHT22;6865;52.552;13.434;2022-09-09T16:13:59;21.50;94.30
13589;DHT22;6865;52.552;13.434;2022-09-09T16:16:28;21.50;94.50
13589;DHT22;6865;52.552;13.434;2022-09-09T16:18:57;21.50;94.20
13589;DHT22;6865;52.552;13.434;2022-09-09T16:21:29;21.50;94.20
13589;DHT22;6865;52.552;13.434;2022-09-09T16:23:58;21.50;94.30
13589;DHT22;6865;52.552;13.434;2022-09-09T16:26:26;21.50;94.20
13589;DHT22;6865;52.552;13.434;2022-09-09T16:28:53;21.50;94.30
13589;DHT22;6865;52.552;13.434;2022-09-09T16:31:22;21.50;94.20
13589;DHT22;6865;52.552;13.434;2022-09-09T16:33:50;21.60;94.10
13589;DHT22;6865;52.552;13.434;2022-09-09T16:36:19;21.60;94.20
13589;DHT22;6865;52.552;13.434;2022-09-09T16:38:46;21.50;94.30
13589;DHT22;6865;52.552;13.434;2022-09-09T16:41:14;21.50;94.50
13589;DHT22;6865;52.552;13.434;2022-09-09T16:43:41;21.50;94.60
13589;DHT22;6865;52.552;13.434;2022-09-09T16:46:18;21.50;94.60
13589;DHT22;6865;52.552;13.434;2022-09-09T16:48:46;21.50;94.70
13589;DHT22;6865;52.552;13.434;2022-09-09T16:51:22;21.50;94.80
13589;DHT22;6865;52.552;13.434;2022-09-09T16:53:51;21.40;94.60
13589;DHT22;6865;52.552;13.434;2022-09-09T16:56:20;21.40;94.80
13589;DHT22;6865;52.552;13.434;2022-09-09T16:58:52;21.30;95.00
13589;DHT22;6865;52.552;13.434;2022-09-09T17:01:29;21.20;95.00
13589;DHT22;6865;52.552;13.434;2022-09-09T17:03:57;21.10;95.20
13589;DHT22;6865;52.552;13.434;2022-09-09T17:06:27;21.10;95.20
13589;DHT22;6865;52.552;13.434;2022-09-09T17:08:56;21.00;95.20
13589;DHT22;6865;52.552;13.434;2022-09-09T17:11:23;21.00;95.60
13589;DHT22;6865;52.552;13.434;2022-09-09T17:13:52;21.00;95.50
13589;DHT22;6865;52.552;13.434;2022-09-09T17:16:22;20.90;95.90
13589;DHT22;6865;52.552;13.434;2022-09-09T17:18:50;20.90;96.70
13589;DHT22;6865;52.552;13.434;2022-09-09T17:21:22;20.70;97.40
13589;DHT22;6865;52.552;13.434;2022-09-09T17:23:50;20.60;98.80